createdAt,value
2018-06-08T00:01:06.968Z,87.00
2018-06-08T00:03:36.958Z,86.90
2018-06-08T00:06:07.756Z,86.80
2018-06-08T00:08:37.722Z,86.90
2018-06-08T00:11:07.838Z,87.50
2018-06-08T00:13:37.762Z,86.60
2018-06-08T00:16:07.727Z,86.70
2018-06-08T00:21:07.442Z,87.10
2018-06-08T00:23:37.977Z,86.70
2018-06-08T00:26:07.929Z,86.60
2018-06-08T00:28:37.957Z,86.70
2018-06-08T00:31:07.963Z,87.00
2018-06-08T00:33:38.452Z,87.40
2018-06-08T00:36:08.496Z,87.20
2018-06-08T00:38:38.411Z,87.50
2018-06-08T00:41:08.305Z,87.80
2018-06-08T00:43:38.355Z,88.00
2018-06-08T00:46:08.556Z,87.90
2018-06-08T00:48:38.600Z,87.70
2018-06-08T00:51:08.690Z,87.40
2018-06-08T00:53:39.424Z,86.90
2018-06-08T00:56:29.838Z,87.00
2018-06-08T00:58:59.886Z,86.70
2018-06-08T01:01:30.600Z,86.80
2018-06-08T01:04:00.612Z,87.10
2018-06-08T01:06:30.681Z,87.40
2018-06-08T01:09:00.832Z,87.70
2018-06-08T01:11:30.906Z,87.70
2018-06-08T01:14:00.998Z,87.90
2018-06-08T01:16:32.360Z,87.70
2018-06-08T01:19:02.510Z,87.80
2018-06-08T01:21:32.557Z,87.80
2018-06-08T01:24:02.764Z,87.50
2018-06-08T01:26:33.605Z,87.70
2018-06-08T01:29:04.321Z,87.90
2018-06-08T01:31:34.468Z,87.90
2018-06-08T01:34:04.656Z,88.20
2018-06-08T01:36:34.912Z,88.10
2018-06-08T01:39:07.796Z,88.10
2018-06-08T01:41:38.147Z,87.80
2018-06-08T01:44:08.899Z,87.20
2018-06-08T01:46:39.006Z,87.10
2018-06-08T01:49:09.102Z,86.60
2018-06-08T01:51:39.221Z,86.60
2018-06-08T01:54:09.621Z,86.90
2018-06-08T01:56:39.731Z,87.00
2018-06-08T01:59:09.895Z,87.20
2018-06-08T02:01:39.903Z,87.50
2018-06-08T02:04:10.569Z,87.20
2018-06-08T02:06:40.925Z,87.20
2018-06-08T02:09:11.117Z,86.40
2018-06-08T02:11:41.262Z,86.50
2018-06-08T02:14:11.371Z,86.70
2018-06-08T02:16:41.428Z,87.20
2018-06-08T02:19:11.629Z,87.30
2018-06-08T02:21:41.817Z,87.40
2018-06-08T02:24:12.478Z,87.40
2018-06-08T02:26:42.630Z,87.20
2018-06-08T02:29:12.670Z,86.70
2018-06-08T02:31:42.772Z,87.00
2018-06-08T02:34:13.031Z,87.60
2018-06-08T02:39:12.759Z,86.50
2018-06-08T02:41:42.889Z,86.80
2018-06-08T02:44:12.984Z,86.90
2018-06-08T02:46:43.059Z,87.10
2018-06-08T02:49:13.253Z,87.40
2018-06-08T02:51:43.382Z,87.20
2018-06-08T02:54:14.091Z,87.40
2018-06-08T02:56:45.896Z,87.40
2018-06-08T02:59:16.028Z,87.20
2018-06-08T03:01:46.287Z,87.20
2018-06-08T03:04:16.405Z,87.50
2018-06-08T03:06:46.471Z,87.40
2018-06-08T03:09:16.490Z,87.30
2018-06-08T03:11:46.664Z,87.30
2018-06-08T03:14:16.686Z,87.00
2018-06-08T03:16:46.756Z,87.00
2018-06-08T03:19:16.914Z,87.10
2018-06-08T03:21:47.036Z,87.20
2018-06-08T03:24:17.156Z,87.10
2018-06-08T03:26:47.230Z,86.80
2018-06-08T03:29:17.385Z,86.70
2018-06-08T03:31:48.070Z,86.30
2018-06-08T03:34:18.263Z,86.50
2018-06-08T03:36:48.367Z,86.60
2018-06-08T03:39:19.667Z,86.70
2018-06-08T03:41:49.803Z,86.90
2018-06-08T03:44:20.022Z,86.70
2018-06-08T03:46:50.674Z,86.80
2018-06-08T03:49:20.703Z,86.70
2018-06-08T03:51:51.629Z,86.70
2018-06-08T03:54:21.731Z,86.70
2018-06-08T03:56:51.928Z,86.70
2018-06-08T03:59:21.973Z,86.80
2018-06-08T04:01:52.076Z,86.70
2018-06-08T04:04:23.161Z,87.40
2018-06-08T04:06:53.189Z,86.60
2018-06-08T04:09:23.291Z,86.10
2018-06-08T04:11:53.372Z,85.80
2018-06-08T04:14:23.480Z,85.70
2018-06-08T04:16:53.602Z,86.00
2018-06-08T04:19:23.699Z,86.00
2018-06-08T04:21:53.767Z,85.80
2018-06-08T04:24:23.971Z,86.20
2018-06-08T04:26:54.068Z,86.20
2018-06-08T04:29:24.214Z,86.20
2018-06-08T04:31:54.312Z,86.00
2018-06-08T04:34:24.399Z,86.20
2018-06-08T04:36:54.443Z,86.10
2018-06-08T04:39:25.071Z,86.10
2018-06-08T04:41:55.156Z,86.00
2018-06-08T04:44:25.189Z,85.90
2018-06-08T04:46:55.277Z,85.80
2018-06-08T04:49:25.427Z,85.80
2018-06-08T04:51:55.554Z,85.90
2018-06-08T04:54:25.617Z,85.60
2018-06-08T04:56:55.663Z,85.30
2018-06-08T04:59:25.861Z,85.10
2018-06-08T05:01:55.939Z,84.70
2018-06-08T05:04:26.031Z,84.70
2018-06-08T05:06:56.150Z,84.70
2018-06-08T05:09:26.149Z,84.70
2018-06-08T05:11:56.244Z,84.70
2018-06-08T05:14:26.322Z,84.50
2018-06-08T05:16:56.378Z,84.50
2018-06-08T05:19:26.547Z,84.50
2018-06-08T05:21:56.641Z,84.40
2018-06-08T05:24:26.805Z,84.50
2018-06-08T05:26:56.928Z,84.70
2018-06-08T05:29:27.227Z,84.70
2018-06-08T05:31:57.291Z,84.40
2018-06-08T05:34:27.384Z,84.40
2018-06-08T05:36:57.445Z,84.30
2018-06-08T05:39:27.484Z,84.20
2018-06-08T05:41:57.597Z,83.30
2018-06-08T05:44:27.656Z,82.90
2018-06-08T05:46:57.775Z,82.30
2018-06-08T05:49:27.947Z,82.10
2018-06-08T05:51:58.027Z,82.20
2018-06-08T05:54:28.270Z,82.20
2018-06-08T05:56:58.259Z,82.00
2018-06-08T05:59:28.350Z,81.90
2018-06-08T06:01:58.453Z,81.90
2018-06-08T06:04:29.212Z,81.90
2018-06-08T06:06:59.309Z,81.50
2018-06-08T06:09:29.366Z,80.70
2018-06-08T06:11:59.473Z,81.10
2018-06-08T06:14:29.711Z,80.50
2018-06-08T06:17:00.440Z,80.60
2018-06-08T06:19:30.498Z,80.60
2018-06-08T06:22:00.540Z,81.20
2018-06-08T06:24:30.623Z,80.00
2018-06-08T06:27:00.665Z,80.50
2018-06-08T06:29:30.820Z,80.20
2018-06-08T06:32:00.940Z,79.30
2018-06-08T06:34:31.147Z,79.40
2018-06-08T06:37:01.734Z,79.30
2018-06-08T06:39:31.879Z,79.20
2018-06-08T06:42:01.983Z,79.50
2018-06-08T06:44:32.028Z,79.30
2018-06-08T06:49:31.862Z,79.80
2018-06-08T06:52:02.034Z,79.20
2018-06-08T06:54:32.848Z,79.70
2018-06-08T06:57:03.074Z,79.80
2018-06-08T06:59:33.222Z,80.10
2018-06-08T07:02:03.440Z,79.50
2018-06-08T07:04:33.590Z,79.10
2018-06-08T07:07:03.716Z,78.10
2018-06-08T07:09:33.800Z,78.50
2018-06-08T07:12:03.972Z,78.60
2018-06-08T07:17:04.578Z,78.60
2018-06-08T07:19:34.614Z,78.80
2018-06-08T07:22:04.762Z,79.00
2018-06-08T07:24:34.871Z,79.70
2018-06-08T07:27:04.903Z,79.30
2018-06-08T07:29:34.932Z,79.10
2018-06-08T07:32:05.004Z,78.90
2018-06-08T07:34:35.075Z,78.30
2018-06-08T07:37:05.160Z,77.70
2018-06-08T07:39:35.544Z,77.70
2018-06-08T07:42:05.691Z,77.40
2018-06-08T07:44:35.705Z,76.80
2018-06-08T07:47:05.861Z,76.90
2018-06-08T07:49:35.891Z,77.00
2018-06-08T07:52:06.051Z,76.20
2018-06-08T07:54:36.042Z,76.10
2018-06-08T07:57:06.314Z,76.20
2018-06-08T07:59:36.347Z,76.10
2018-06-08T08:02:06.479Z,74.80
2018-06-08T08:04:36.615Z,74.70
2018-06-08T08:07:06.725Z,75.20
2018-06-08T08:09:36.804Z,74.70
2018-06-08T08:12:07.033Z,74.50
2018-06-08T08:14:37.103Z,74.20
2018-06-08T08:17:07.162Z,73.70
2018-06-08T08:19:37.238Z,73.30
2018-06-08T08:22:07.748Z,72.90
2018-06-08T08:24:37.818Z,72.30
2018-06-08T08:27:07.929Z,72.00
2018-06-08T08:29:37.989Z,72.20
2018-06-08T08:32:08.825Z,71.90
2018-06-08T08:34:39.509Z,71.20
2018-06-08T08:37:09.719Z,69.00
2018-06-08T08:39:39.859Z,68.30
2018-06-08T08:42:09.939Z,67.60
2018-06-08T08:44:40.161Z,67.90
2018-06-08T08:47:10.379Z,67.90
2018-06-08T08:49:40.511Z,68.00
2018-06-08T08:52:10.649Z,68.00
2018-06-08T08:54:40.780Z,67.50
2018-06-08T08:57:11.001Z,67.20
2018-06-08T08:59:41.219Z,66.70
2018-06-08T09:02:11.343Z,65.90
2018-06-08T09:04:42.468Z,65.50
2018-06-08T09:07:12.777Z,65.40
2018-06-08T09:09:42.910Z,65.20
2018-06-08T09:12:13.739Z,64.50
2018-06-08T09:14:43.847Z,63.70
2018-06-08T09:17:13.988Z,62.00
2018-06-08T09:19:44.148Z,61.10
2018-06-08T09:22:14.219Z,59.30
2018-06-08T09:24:44.268Z,58.80
2018-06-08T09:27:15.226Z,58.80
2018-06-08T09:29:45.306Z,58.80
2018-06-08T09:32:15.518Z,57.50
2018-06-08T09:34:46.234Z,57.20
2018-06-08T09:37:17.058Z,55.80
2018-06-08T09:39:47.144Z,55.50
2018-06-08T09:42:17.286Z,55.20
2018-06-08T09:44:47.495Z,54.10
2018-06-08T09:47:17.634Z,54.40
2018-06-08T09:49:47.844Z,53.80
2018-06-08T09:52:17.917Z,52.30
2018-06-08T09:54:48.136Z,52.30
2018-06-08T09:57:18.264Z,52.30
2018-06-08T09:59:48.884Z,52.40
2018-06-08T10:02:18.964Z,51.70
2018-06-08T10:04:49.039Z,51.10
2018-06-08T10:07:19.556Z,51.60
2018-06-08T10:09:49.665Z,50.80
2018-06-08T10:12:19.783Z,50.00
2018-06-08T10:14:49.860Z,50.20
2018-06-08T10:17:19.978Z,50.00
2018-06-08T10:19:50.032Z,49.50
2018-06-08T10:22:20.204Z,49.50
2018-06-08T10:24:50.360Z,49.10
2018-06-08T10:27:20.438Z,48.50
2018-06-08T10:29:51.088Z,48.10
2018-06-08T10:32:22.482Z,46.50
2018-06-08T10:34:52.552Z,46.30
2018-06-08T10:37:22.764Z,46.30
2018-06-08T10:39:52.958Z,46.10
2018-06-08T10:42:23.182Z,45.10
2018-06-08T10:44:53.820Z,44.90
2018-06-08T10:47:24.388Z,45.50
2018-06-08T10:49:54.622Z,45.10
2018-06-08T10:52:24.800Z,45.60
2018-06-08T10:54:54.957Z,46.10
2018-06-08T10:57:30.538Z,46.30
2018-06-08T11:00:00.677Z,44.60
2018-06-08T11:02:30.799Z,45.70
2018-06-08T11:05:01.137Z,45.40
2018-06-08T11:07:31.255Z,45.20
2018-06-08T11:10:01.340Z,45.80
2018-06-08T11:12:31.438Z,46.00
2018-06-08T11:15:01.461Z,46.40
2018-06-08T11:17:31.522Z,46.90
2018-06-08T11:20:02.887Z,47.30
2018-06-08T11:22:32.959Z,47.20
2018-06-08T11:25:03.879Z,46.70
2018-06-08T11:27:34.305Z,47.00
2018-06-08T11:30:04.425Z,46.40
2018-06-08T11:32:34.558Z,46.30
2018-06-08T11:35:04.611Z,46.70
2018-06-08T11:37:34.691Z,46.60
2018-06-08T11:40:04.821Z,46.20
2018-06-08T11:42:34.897Z,46.50
2018-06-08T11:45:05.025Z,45.00
2018-06-08T11:47:35.145Z,44.30
2018-06-08T11:50:05.235Z,44.80
2018-06-08T11:52:35.349Z,45.30
2018-06-08T11:55:05.529Z,45.30
2018-06-08T11:57:35.702Z,44.30
2018-06-08T12:00:06.253Z,43.40
2018-06-08T12:02:36.631Z,42.30
2018-06-08T12:05:06.729Z,41.90
2018-06-08T12:07:36.977Z,42.20
2018-06-08T12:10:07.162Z,42.60
2018-06-08T12:12:37.229Z,41.40
2018-06-08T12:15:07.314Z,39.00
2018-06-08T12:17:37.434Z,38.70
2018-06-08T12:20:07.489Z,40.30
2018-06-08T12:22:37.719Z,40.90
2018-06-08T12:25:07.800Z,40.30
2018-06-08T12:27:37.995Z,40.40
2018-06-08T12:30:08.135Z,40.70
2018-06-08T12:32:38.205Z,41.10
2018-06-08T12:35:08.331Z,41.40
2018-06-08T12:37:38.424Z,40.90
2018-06-08T12:40:08.614Z,40.60
2018-06-08T12:42:39.428Z,41.40
2018-06-08T12:45:09.521Z,41.10
2018-06-08T12:47:39.804Z,41.20
2018-06-08T12:50:09.803Z,40.90
2018-06-08T12:52:39.889Z,40.70
2018-06-08T12:55:09.973Z,41.10
2018-06-08T12:57:40.248Z,42.10
2018-06-08T13:00:10.385Z,42.50
2018-06-08T13:02:40.445Z,42.40
2018-06-08T13:05:10.481Z,41.70
2018-06-08T13:07:40.611Z,41.20
2018-06-08T13:10:10.783Z,42.10
2018-06-08T13:12:40.847Z,41.60
2018-06-08T13:15:11.077Z,40.50
2018-06-08T13:17:41.224Z,39.80
2018-06-08T13:20:11.355Z,40.30
2018-06-08T13:22:41.510Z,40.60
2018-06-08T13:25:11.992Z,40.60
2018-06-08T13:27:42.155Z,40.00
2018-06-08T13:30:12.342Z,38.30
2018-06-08T13:32:42.417Z,38.10
2018-06-08T13:35:12.609Z,38.60
2018-06-08T13:37:42.689Z,39.20
2018-06-08T13:40:14.032Z,39.20
2018-06-08T13:42:44.227Z,39.00
2018-06-08T13:45:14.521Z,39.00
2018-06-08T13:47:44.486Z,38.70
2018-06-08T13:50:14.515Z,39.60
2018-06-08T13:52:44.574Z,38.70
2018-06-08T13:55:17.288Z,38.00
2018-06-08T13:57:47.601Z,38.00
2018-06-08T14:00:17.710Z,38.00
2018-06-08T14:02:49.377Z,34.60
2018-06-08T14:05:19.496Z,32.20
2018-06-08T14:07:49.759Z,31.20
2018-06-08T14:10:19.827Z,31.60
2018-06-08T14:12:51.020Z,31.80
2018-06-08T14:15:20.999Z,28.60
2018-06-08T14:17:50.973Z,26.10
2018-06-08T14:20:20.992Z,23.90
2018-06-08T14:22:51.015Z,22.60
2018-06-08T14:25:22.250Z,22.00
2018-06-08T14:27:53.397Z,21.40
2018-06-08T14:30:24.550Z,20.80
2018-06-08T14:32:55.429Z,20.20
2018-06-08T14:35:26.251Z,21.60
2018-06-08T14:37:56.378Z,23.60
2018-06-08T14:40:26.504Z,25.10
2018-06-08T14:42:56.629Z,26.70
2018-06-08T14:45:26.701Z,28.00
2018-06-08T14:47:56.939Z,26.60
2018-06-08T14:50:27.055Z,24.10
2018-06-08T14:52:57.347Z,21.70
2018-06-08T14:55:28.204Z,20.10
2018-06-08T14:57:58.301Z,18.10
2018-06-08T15:00:28.461Z,16.40
2018-06-08T15:02:58.943Z,15.70
2018-06-08T15:05:29.691Z,15.60
2018-06-08T15:07:59.911Z,15.30
2018-06-08T15:10:30.580Z,15.00
2018-06-08T15:13:00.821Z,15.00
2018-06-08T15:15:31.835Z,14.90
2018-06-08T15:18:02.019Z,14.60
2018-06-08T15:20:32.201Z,16.20
2018-06-08T15:23:02.382Z,17.30
2018-06-08T15:25:32.476Z,18.30
2018-06-08T15:28:02.850Z,17.90
2018-06-08T15:30:32.952Z,16.70
2018-06-08T15:33:03.139Z,15.50
2018-06-08T15:35:33.340Z,14.80
2018-06-08T15:38:03.523Z,14.40
2018-06-08T15:43:03.561Z,15.60
2018-06-08T15:45:33.695Z,17.50
2018-06-08T15:48:03.836Z,17.40
2018-06-08T15:50:33.886Z,16.80
2018-06-08T15:53:04.618Z,16.10
2018-06-08T15:55:34.831Z,16.10
2018-06-08T15:58:04.955Z,17.10
2018-06-08T16:00:36.557Z,19.00
2018-06-08T16:03:07.701Z,20.40
2018-06-08T16:05:37.861Z,22.20
2018-06-08T16:08:07.934Z,23.90
2018-06-08T16:10:38.071Z,25.00
2018-06-08T16:13:08.185Z,26.00
2018-06-08T16:15:38.329Z,26.70
2018-06-08T16:18:08.400Z,26.90
2018-06-08T16:20:38.589Z,26.60
2018-06-08T16:23:08.751Z,26.70
2018-06-08T16:25:38.807Z,27.10
2018-06-08T16:28:08.930Z,27.50
2018-06-08T16:30:39.030Z,28.00
2018-06-08T16:33:09.149Z,28.90
2018-06-08T16:35:39.263Z,28.30
2018-06-08T16:38:09.352Z,29.20
2018-06-08T16:40:40.130Z,29.90
2018-06-08T16:43:10.372Z,29.80
2018-06-08T16:45:40.563Z,30.00
2018-06-08T16:48:10.783Z,30.80
2018-06-08T16:50:41.301Z,30.40
2018-06-08T16:53:11.575Z,30.20
2018-06-08T16:55:41.784Z,30.60
2018-06-08T16:58:11.989Z,31.20
2018-06-08T17:00:44.169Z,31.80
2018-06-08T17:03:14.977Z,32.50
2018-06-08T17:05:45.057Z,32.70
2018-06-08T17:08:15.215Z,32.60
2018-06-08T17:10:45.407Z,33.00
2018-06-08T17:13:15.527Z,33.10
2018-06-08T17:15:45.615Z,34.40
2018-06-08T17:18:15.783Z,35.40
2018-06-08T17:20:46.016Z,36.10
2018-06-08T17:23:16.189Z,37.40
2018-06-08T17:25:46.287Z,38.90
2018-06-08T17:28:16.631Z,39.70
2018-06-08T17:30:46.668Z,40.10
2018-06-08T17:33:16.839Z,40.50
2018-06-08T17:35:47.032Z,40.90
2018-06-08T17:38:18.148Z,41.30
2018-06-08T17:40:48.211Z,42.00
2018-06-08T17:43:18.342Z,42.20
2018-06-08T17:45:48.611Z,43.10
2018-06-08T17:48:19.048Z,42.60
2018-06-08T17:50:49.175Z,42.90
2018-06-08T17:53:19.294Z,43.00
2018-06-08T17:55:49.512Z,43.30
2018-06-08T17:58:19.599Z,43.40
2018-06-08T18:00:50.342Z,43.90
2018-06-08T18:03:20.505Z,44.20
2018-06-08T18:05:50.610Z,44.10
2018-06-08T18:08:20.902Z,44.30
2018-06-08T18:10:50.994Z,44.40
2018-06-08T18:13:21.068Z,44.50
2018-06-08T18:15:51.178Z,44.50
2018-06-08T18:18:21.360Z,44.50
2018-06-08T18:20:51.413Z,44.40
2018-06-08T18:25:51.671Z,44.60
2018-06-08T18:28:21.818Z,44.60
2018-06-08T18:30:51.900Z,44.60
2018-06-08T18:33:22.126Z,44.70
2018-06-08T18:35:52.282Z,44.60
2018-06-08T18:38:22.397Z,44.60
2018-06-08T18:40:52.570Z,44.60
2018-06-08T18:43:22.710Z,44.80
2018-06-08T18:45:52.882Z,45.00
2018-06-08T18:48:23.764Z,45.20
2018-06-08T18:50:53.833Z,45.40
2018-06-08T18:53:24.055Z,45.50
2018-06-08T18:55:54.168Z,45.70
2018-06-08T18:58:24.936Z,46.00
2018-06-08T19:00:55.878Z,46.40
2018-06-08T19:03:27.106Z,46.50
2018-06-08T19:05:57.227Z,46.80
2018-06-08T19:08:27.372Z,47.20
2018-06-08T19:10:57.559Z,47.90
2018-06-08T19:13:27.737Z,48.60
2018-06-08T19:15:57.818Z,48.80
2018-06-08T19:18:27.959Z,48.90
2018-06-08T19:20:58.072Z,49.00
2018-06-08T19:23:28.261Z,48.80
2018-06-08T19:25:58.359Z,48.60
2018-06-08T19:28:28.451Z,48.50
2018-06-08T19:30:58.997Z,48.40
2018-06-08T19:33:30.087Z,49.00
2018-06-08T19:36:00.183Z,49.90
2018-06-08T19:38:30.273Z,50.20
2018-06-08T19:41:00.383Z,51.90
2018-06-08T19:43:30.543Z,52.80
2018-06-08T19:46:00.649Z,52.30
2018-06-08T19:48:30.875Z,51.80
2018-06-08T19:51:00.882Z,52.60
2018-06-08T19:53:30.999Z,53.30
2018-06-08T19:56:01.105Z,53.20
2018-06-08T19:58:31.282Z,53.10
2018-06-08T20:01:01.350Z,52.40
2018-06-08T20:03:32.251Z,52.70
2018-06-08T20:06:02.380Z,53.60
2018-06-08T20:08:32.501Z,53.80
2018-06-08T20:11:03.235Z,54.20
2018-06-08T20:13:33.400Z,55.00
2018-06-08T20:16:03.441Z,53.10
2018-06-08T20:18:33.508Z,53.20
2018-06-08T20:21:03.661Z,53.60
2018-06-08T20:23:33.747Z,54.10
2018-06-08T20:26:03.961Z,54.70
2018-06-08T20:28:34.737Z,54.50
2018-06-08T20:31:05.024Z,53.80
2018-06-08T20:33:35.315Z,53.60
2018-06-08T20:36:05.474Z,53.40
2018-06-08T20:38:36.703Z,54.30
2018-06-08T20:41:06.900Z,54.20
2018-06-08T20:43:37.660Z,54.70
2018-06-08T20:46:07.838Z,55.30
2018-06-08T20:48:37.913Z,55.50
2018-06-08T20:51:08.095Z,55.70
2018-06-08T20:53:38.176Z,55.50
2018-06-08T20:56:08.288Z,55.70
2018-06-08T20:58:38.569Z,56.20
2018-06-08T21:01:08.623Z,56.30
2018-06-08T21:03:38.846Z,56.90
2018-06-08T21:06:09.002Z,56.80
2018-06-08T21:08:40.077Z,57.10
2018-06-08T21:11:10.333Z,57.90
2018-06-08T21:13:40.741Z,58.20
2018-06-08T21:16:11.346Z,58.40
2018-06-08T21:18:41.706Z,58.50
2018-06-08T21:21:11.766Z,58.60
2018-06-08T21:23:42.245Z,58.50
2018-06-08T21:26:12.900Z,58.70
2018-06-08T21:28:43.058Z,58.70
2018-06-08T21:31:13.666Z,58.70
2018-06-08T21:33:44.510Z,58.80
2018-06-08T21:36:15.197Z,59.00
2018-06-08T21:38:45.260Z,58.40
2018-06-08T21:41:15.486Z,58.30
2018-06-08T21:43:45.648Z,58.80
2018-06-08T21:46:15.786Z,59.10
2018-06-08T21:48:47.434Z,59.20
2018-06-08T21:51:18.147Z,59.70
2018-06-08T21:56:18.363Z,60.30
2018-06-08T21:58:48.587Z,60.50
2018-06-08T22:01:18.730Z,61.00
2018-06-08T22:03:49.403Z,61.30
2018-06-08T22:06:19.481Z,61.40
2018-06-08T22:08:49.607Z,61.80
2018-06-08T22:11:19.713Z,62.10
2018-06-08T22:13:50.069Z,62.10
2018-06-08T22:16:20.352Z,61.70
2018-06-08T22:18:50.429Z,61.70
2018-06-08T22:21:20.510Z,61.70
2018-06-08T22:23:50.622Z,62.20
2018-06-08T22:26:20.741Z,62.60
2018-06-08T22:28:50.905Z,63.20
2018-06-08T22:31:20.953Z,63.90
2018-06-08T22:33:51.565Z,64.00
2018-06-08T22:36:21.601Z,63.70
2018-06-08T22:38:51.878Z,64.20
2018-06-08T22:41:21.949Z,64.30
2018-06-08T22:43:52.023Z,64.60
2018-06-08T22:46:22.141Z,64.70
2018-06-08T22:48:52.223Z,64.80
2018-06-08T22:51:22.403Z,64.80
2018-06-08T22:53:53.387Z,64.90
2018-06-08T22:56:23.561Z,65.80
2018-06-08T22:58:54.261Z,65.40
2018-06-08T23:01:24.301Z,65.60
2018-06-08T23:03:55.045Z,65.80
2018-06-08T23:06:25.046Z,66.00
2018-06-08T23:08:55.181Z,66.10
2018-06-08T23:11:25.256Z,66.10
2018-06-08T23:13:56.891Z,66.40
2018-06-08T23:16:27.063Z,66.80
2018-06-08T23:18:57.149Z,67.00
2018-06-08T23:21:27.200Z,67.40
2018-06-08T23:23:57.439Z,67.50
2018-06-08T23:26:27.463Z,67.80
2018-06-08T23:28:57.846Z,67.40
2018-06-08T23:31:28.021Z,67.70
2018-06-08T23:33:58.668Z,67.80
2018-06-08T23:36:28.766Z,67.90
2018-06-08T23:38:58.820Z,68.10
2018-06-08T23:41:28.948Z,67.90
2018-06-08T23:43:58.977Z,68.20
2018-06-08T23:46:29.021Z,68.20
2018-06-08T23:48:59.172Z,68.30
2018-06-08T23:51:29.205Z,68.40
2018-06-08T23:53:59.247Z,68.60
2018-06-08T23:56:29.332Z,68.70
2018-06-08T23:58:59.473Z,68.40
